Time;durP1;ratioP1;P1;durP2;ratioP2;P2;SDS_P1;SDS_P2;PMS_P1;PMS_P2;Temp;Humidity;BMP_temperature;BMP_pressure;BME280_temperature;BME280_humidity;BME280_pressure;Samples;Min_cycle;Max_cycle;Signal;HPM_P1;HPM_P2
2024/01/18 00:02:12;;;;;;;;;30.50;29.25;;;;;2.71;84.87;98402.88;5118479;27;45622;-81
2024/01/18 00:04:40;;;;;;;;;30.00;21.00;;;;;2.76;84.52;98421.84;5119609;27;46886;-82
2024/01/18 00:07:05;;;;;;;;;27.75;23.25;;;;;2.60;84.58;98406.13;5139275;27;45295;-80
2024/01/18 00:09:31;;;;;;;;;28.75;23.75;;;;;2.69;84.70;98431.84;5129223;27;52227;-79
2024/01/18 00:11:56;;;;;;;;;31.50;26.25;;;;;2.70;84.85;98438.78;5121519;27;45137;-82
2024/01/18 00:14:21;;;;;;;;;30.00;25.75;;;;;2.72;85.14;98443.94;5120508;27;46915;-79
2024/01/18 00:16:47;;;;;;;;;28.75;20.00;;;;;2.71;84.39;98440.47;5120334;27;45239;-81
2024/01/18 00:19:12;;;;;;;;;27.50;22.00;;;;;2.77;84.77;98455.03;5120223;27;45392;-81
2024/01/18 00:21:38;;;;;;;;;28.25;22.50;;;;;2.82;84.48;98461.69;5119424;27;45358;-80
2024/01/18 00:24:05;;;;;;;;;26.50;23.50;;;;;2.84;84.52;98459.81;5118496;27;45460;-79
2024/01/18 00:26:31;;;;;;;;;21.50;20.00;;;;;2.96;83.85;98464.34;5116895;27;45384;-81
2024/01/18 00:28:57;;;;;;;;;25.75;22.50;;;;;2.84;83.86;98454.56;5117496;27;45451;-80
2024/01/18 00:31:22;;;;;;;;;22.75;21.25;;;;;2.81;83.64;98451.28;5117956;27;45607;-81
2024/01/18 00:33:48;;;;;;;;;27.25;22.25;;;;;2.84;83.39;98451.09;5117680;27;46063;-84
2024/01/18 00:36:13;;;;;;;;;20.25;20.25;;;;;2.90;83.84;98456.84;5117063;27;45559;-84
2024/01/18 00:38:38;;;;;;;;;16.25;16.25;;;;;2.86;84.12;98457.94;5124719;27;45405;-80
2024/01/18 00:41:04;;;;;;;;;27.50;21.00;;;;;2.80;84.41;98450.44;5138738;27;45179;-82
2024/01/18 00:43:29;;;;;;;;;25.75;22.00;;;;;2.89;83.75;98455.16;5137962;27;46078;-81
2024/01/18 00:45:54;;;;;;;;;23.50;22.00;;;;;2.94;83.23;98452.25;5123964;27;49610;-80
2024/01/18 00:48:20;;;;;;;;;26.25;20.50;;;;;2.89;83.74;98449.91;5117118;27;45342;-84
2024/01/18 00:50:45;;;;;;;;;21.75;21.00;;;;;2.82;84.30;98447.72;5117677;27;45223;-81
2024/01/18 00:53:11;;;;;;;;;26.75;18.75;;;;;2.67;84.18;98433.72;5117669;27;47045;-83
2024/01/18 00:55:36;;;;;;;;;18.25;18.25;;;;;2.69;84.86;98457.25;5117107;27;45221;-84
2024/01/18 00:58:02;;;;;;;;;18.50;18.50;;;;;2.75;84.14;98463.00;5117550;27;45254;-80
2024/01/18 01:00:27;;;;;;;;;21.25;19.00;;;;;2.64;83.97;98455.75;5117649;27;45219;-83
2024/01/18 01:02:53;;;;;;;;;17.00;17.00;;;;;2.64;84.41;98454.91;5117392;27;45948;-81
2024/01/18 01:05:18;;;;;;;;;24.50;16.50;;;;;2.62;84.63;98460.25;5108767;27;45598;-81
2024/01/18 01:07:43;;;;;;;;;29.25;19.25;;;;;2.69;84.10;98457.25;5119897;27;61795;-80
2024/01/18 01:10:09;;;;;;;;;26.25;22.50;;;;;2.52;84.12;98435.47;5116649;27;50957;-80
2024/01/18 01:12:35;;;;;;;;;18.25;18.25;;;;;2.60;83.85;98442.88;5117210;27;45494;-80
2024/01/18 01:15:00;;;;;;;;;24.75;14.75;;;;;2.53;83.95;98441.56;5116418;27;45314;-82
2024/01/18 01:17:25;;;;;;;;;20.00;19.75;;;;;2.52;83.78;98440.72;5118371;27;45730;-80
2024/01/18 01:19:51;;;;;;;;;18.00;16.00;;;;;2.60;83.83;98432.38;5137614;27;45898;-81
2024/01/18 01:22:16;;;;;;;;;24.25;16.50;;;;;2.57;84.24;98437.81;5138410;27;45889;-82
2024/01/18 01:24:41;;;;;;;;;9.75;9.75;;;;;2.47;84.45;98444.50;5134939;27;48196;-82
2024/01/18 01:27:06;;;;;;;;;20.25;17.75;;;;;2.33;84.12;98427.78;5119121;27;59192;-81
2024/01/18 01:29:32;;;;;;;;;23.00;18.50;;;;;2.36;84.34;98446.00;5118529;27;45395;-80
2024/01/18 01:31:58;;;;;;;;;25.25;22.75;;;;;2.31;84.20;98442.75;5120493;27;45466;-86
2024/01/18 01:34:23;;;;;;;;;23.50;19.50;;;;;2.31;84.20;98439.31;5121219;27;45586;-83
2024/01/18 01:36:48;;;;;;;;;19.50;14.75;;;;;2.29;84.78;98442.00;5141306;27;45355;-81
2024/01/18 01:39:14;;;;;;;;;17.25;17.25;;;;;2.32;85.34;98446.22;5121796;27;54895;-81
2024/01/18 01:41:39;;;;;;;;;17.50;17.50;;;;;2.30;84.26;98451.56;5120616;27;45617;-81
2024/01/18 01:44:07;;;;;;;;;17.75;17.25;;;;;2.29;84.38;98455.13;5120133;27;52260;-81
2024/01/18 01:46:33;;;;;;;;;19.25;15.00;;;;;2.26;84.72;98452.69;5119829;27;45338;-84
2024/01/18 01:49:02;;;;;;;;;22.25;19.25;;;;;2.26;84.66;98443.97;5134641;27;52348;-81
2024/01/18 01:51:48;;;;;;;;;16.50;16.50;;;;;2.31;84.57;98462.91;5141806;27;45515;-82
2024/01/18 01:54:19;;;;;;;;;19.25;17.00;;;;;2.29;84.43;98465.63;5121909;27;45244;-82
2024/01/18 01:56:49;;;;;;;;;25.25;22.25;;;;;2.32;84.19;98467.22;5141466;27;45396;-81
2024/01/18 01:59:16;;;;;;;;;28.25;18.50;;;;;2.29;83.90;98481.34;5122688;27;45576;-82
2024/01/18 02:01:45;;;;;;;;;27.00;21.00;;;;;2.27;83.83;98472.72;5102156;27;46323;-79
2024/01/18 02:04:11;;;;;;;;;20.50;19.00;;;;;2.23;83.37;98476.47;5119462;27;45495;-78
2024/01/18 02:06:39;;;;;;;;;25.25;17.25;;;;;2.21;83.17;98475.69;5101925;27;45702;-81
2024/01/18 02:09:05;;;;;;;;;28.25;22.00;;;;;2.27;83.55;98477.13;5120654;27;45503;-83
2024/01/18 02:11:31;;;;;;;;;23.25;14.00;;;;;2.28;82.90;98470.97;5119961;27;45479;-82
2024/01/18 02:13:57;;;;;;;;;25.00;22.50;;;;;2.18;83.30;98470.63;5121021;27;45417;-82
2024/01/18 02:16:23;;;;;;;;;32.25;24.75;;;;;2.22;83.45;98476.56;5120452;27;45286;-80
2024/01/18 02:18:48;;;;;;;;;29.00;25.25;;;;;2.16;83.10;98484.75;5120653;27;45509;-82
2024/01/18 02:21:14;;;;;;;;;28.25;23.25;;;;;2.11;83.35;98477.16;5120358;27;45299;-81
2024/01/18 02:23:45;;;;;;;;;22.00;22.00;;;;;2.12;83.48;98476.22;5124239;27;45352;-81
2024/01/18 02:26:11;;;;;;;;;34.50;24.25;;;;;2.09;83.28;98467.69;5141208;27;45489;-81
2024/01/18 02:28:36;;;;;;;;;36.50;24.75;;;;;2.02;83.92;98472.41;5136035;27;45200;-81
2024/01/18 02:31:01;;;;;;;;;8.50;6.25;;;;;1.97;83.98;98469.19;5140573;27;45275;-80
2024/01/18 02:33:27;;;;;;;;;26.75;22.00;;;;;2.04;83.79;98483.66;5136770;27;45245;-80
2024/01/18 02:35:53;;;;;;;;;24.75;22.25;;;;;1.89;84.82;98466.13;5119524;27;45666;-80
2024/01/18 02:38:18;;;;;;;;;22.50;19.75;;;;;2.02;84.56;98501.25;5120091;27;45314;-80
2024/01/18 02:40:44;;;;;;;;;26.25;21.00;;;;;2.00;85.50;98505.72;5120395;27;46312;-78
2024/01/18 02:43:09;;;;;;;;;22.25;20.00;;;;;2.02;84.32;98509.09;5120114;27;45440;-82
2024/01/18 02:45:36;;;;;;;;;20.75;17.00;;;;;1.96;84.89;98509.44;5119261;27;45304;-84
2024/01/18 02:48:01;;;;;;;;;16.50;10.25;;;;;1.90;85.45;98515.00;5119961;27;45371;-80
2024/01/18 02:50:27;;;;;;;;;23.00;20.25;;;;;1.89;85.94;98508.94;5123125;27;45475;-79
2024/01/18 02:52:52;;;;;;;;;26.75;21.75;;;;;1.88;85.24;98515.09;5120443;27;45403;-80
2024/01/18 02:55:18;;;;;;;;;20.25;18.75;;;;;1.89;85.28;98513.31;5119198;27;45378;-80
2024/01/18 02:57:43;;;;;;;;;24.50;18.50;;;;;1.78;85.40;98491.16;5120523;27;45485;-80
2024/01/18 03:00:09;;;;;;;;;18.75;17.00;;;;;1.74;86.15;98494.03;5118899;27;46736;-82
2024/01/18 03:02:35;;;;;;;;;21.50;19.00;;;;;1.71;86.78;98495.03;5119736;27;45920;-81
2024/01/18 03:05:00;;;;;;;;;21.50;15.25;;;;;1.73;86.96;98498.44;5118367;27;45751;-83
2024/01/18 03:07:28;;;;;;;;;14.50;11.00;;;;;1.63;86.49;98491.97;5119230;27;45283;-82
2024/01/18 03:09:53;;;;;;;;;15.00;15.00;;;;;1.62;86.89;98510.41;5120788;27;45487;-82
2024/01/18 03:12:19;;;;;;;;;18.25;15.50;;;;;1.55;87.66;98520.34;5099944;27;45543;-80
2024/01/18 03:14:44;;;;;;;;;19.50;15.00;;;;;1.56;87.15;98515.94;5126058;27;45380;-81
2024/01/18 03:17:09;;;;;;;;;19.00;15.25;;;;;1.58;88.01;98525.44;5118665;27;45603;-80
2024/01/18 03:19:35;;;;;;;;;18.50;14.00;;;;;1.54;87.05;98534.38;5118394;27;67292;-78
2024/01/18 03:22:00;;;;;;;;;13.75;13.75;;;;;1.45;87.37;98524.38;5118080;27;51656;-82
2024/01/18 03:24:25;;;;;;;;;14.50;14.50;;;;;1.47;87.22;98540.88;5117492;27;45429;-79
2024/01/18 03:26:52;;;;;;;;;18.00;14.75;;;;;1.44;88.19;98535.78;5118990;27;45463;-82
2024/01/18 03:29:17;;;;;;;;;20.00;17.00;;;;;1.40;87.57;98540.31;5119289;27;46086;-83
2024/01/18 03:31:43;;;;;;;;;11.00;11.00;;;;;1.26;88.29;98532.34;5118599;27;45483;-80
2024/01/18 03:34:08;;;;;;;;;11.50;10.50;;;;;1.37;88.89;98556.19;5125476;27;46135;-81
2024/01/18 03:36:34;;;;;;;;;14.25;11.25;;;;;1.22;88.32;98536.03;5140138;27;45616;-81
2024/01/18 03:38:59;;;;;;;;;14.00;10.00;;;;;1.38;88.23;98565.75;5140351;27;45262;-83
2024/01/18 03:41:24;;;;;;;;;14.75;13.50;;;;;1.36;87.94;98572.00;5124151;27;45372;-81
2024/01/18 03:43:49;;;;;;;;;14.00;11.50;;;;;1.31;89.00;98566.16;5118079;27;54019;-83
2024/01/18 03:46:15;;;;;;;;;12.75;10.25;;;;;1.38;89.34;98581.47;5118116;27;46097;-86
2024/01/18 03:48:41;;;;;;;;;10.75;10.75;;;;;1.42;89.28;98587.38;5118710;27;45367;-86
2024/01/18 03:51:06;;;;;;;;;15.00;10.75;;;;;1.39;88.67;98582.31;5118267;27;45273;-81
2024/01/18 03:53:32;;;;;;;;;13.25;11.00;;;;;1.43;88.71;98599.56;5116745;27;45321;-80
2024/01/18 03:55:57;;;;;;;;;14.00;10.00;;;;;1.42;88.02;98603.09;5118816;27;45271;-80
2024/01/18 03:58:22;;;;;;;;;14.25;10.75;;;;;1.45;88.46;98613.44;5117774;27;50331;-80
2024/01/18 04:00:48;;;;;;;;;10.25;10.25;;;;;1.46;88.56;98609.91;5118474;27;45233;-80
2024/01/18 04:03:13;;;;;;;;;17.25;13.50;;;;;1.51;88.35;98607.88;5120829;27;45310;-80
2024/01/18 04:05:38;;;;;;;;;11.75;10.50;;;;;1.46;87.19;98608.13;5139432;27;45723;-79
2024/01/18 04:08:04;;;;;;;;;14.50;14.50;;;;;1.47;87.99;98617.69;5132724;27;46045;-80
2024/01/18 04:10:29;;;;;;;;;10.75;10.75;;;;;1.52;87.47;98620.06;5123950;27;45343;-80
2024/01/18 04:12:54;;;;;;;;;5.50;5.50;;;;;1.56;89.28;98632.06;5126311;27;45390;-80
2024/01/18 04:15:20;;;;;;;;;13.25;10.50;;;;;1.56;87.32;98626.81;5126250;27;45553;-80
2024/01/18 04:17:45;;;;;;;;;10.50;7.25;;;;;1.60;86.91;98632.78;5120832;27;57084;-80
2024/01/18 04:20:13;;;;;;;;;8.50;8.50;;;;;1.58;86.36;98639.88;5118742;27;45381;-79
2024/01/18 04:22:38;;;;;;;;;9.00;9.00;;;;;1.55;86.22;98645.25;5118399;27;45494;-80
2024/01/18 04:25:05;;;;;;;;;13.00;12.00;;;;;1.47;85.51;98649.13;5117444;27;45638;-80
2024/01/18 04:27:30;;;;;;;;;16.00;11.00;;;;;1.41;85.75;98651.16;5117444;27;45729;-81
2024/01/18 04:29:56;;;;;;;;;15.00;10.75;;;;;1.31;87.26;98647.34;5117516;27;45231;-79
2024/01/18 04:32:21;;;;;;;;;15.50;13.25;;;;;1.44;87.07;98669.38;5117144;27;45376;-80
2024/01/18 04:34:46;;;;;;;;;14.75;11.25;;;;;1.45;86.93;98678.94;5117521;27;45376;-80
2024/01/18 04:37:11;;;;;;;;;16.00;14.75;;;;;1.42;85.83;98684.28;5117409;27;45237;-79
2024/01/18 04:39:37;;;;;;;;;15.50;13.00;;;;;1.45;85.99;98702.50;5117460;27;45345;-78
2024/01/18 04:42:02;;;;;;;;;15.25;15.00;;;;;1.47;86.25;98701.50;5117325;27;50231;-79
2024/01/18 04:44:28;;;;;;;;;20.00;17.75;;;;;1.48;87.00;98697.09;5099047;27;45678;-83
2024/01/18 04:46:53;;;;;;;;;16.25;9.25;;;;;1.45;84.52;98707.75;5117085;27;48772;-84
2024/01/18 04:49:19;;;;;;;;;16.75;14.25;;;;;1.43;85.04;98714.81;5118638;27;45254;-81
2024/01/18 04:51:44;;;;;;;;;22.75;16.00;;;;;1.40;85.19;98725.44;5117230;27;45325;-79
2024/01/18 04:54:09;;;;;;;;;22.00;16.00;;;;;1.34;83.66;98742.31;5116586;27;56824;-80
2024/01/18 04:56:37;;;;;;;;;23.00;20.25;;;;;1.37;84.68;98750.00;5117145;27;45431;-80
2024/01/18 04:59:04;;;;;;;;;19.50;16.25;;;;;1.36;83.76;98744.84;5120068;27;45312;-79
2024/01/18 05:01:29;;;;;;;;;19.25;17.00;;;;;1.31;82.59;98746.84;5102522;27;45388;-80
2024/01/18 05:03:54;;;;;;;;;24.00;17.75;;;;;1.35;83.46;98764.09;5120598;27;45532;-83
2024/01/18 05:06:20;;;;;;;;;16.50;16.00;;;;;1.27;83.65;98761.00;5121231;27;52217;-81
2024/01/18 05:08:45;;;;;;;;;18.50;12.50;;;;;1.32;83.54;98766.88;5122472;27;45287;-84
2024/01/18 05:11:11;;;;;;;;;22.00;18.00;;;;;1.36;82.29;98786.75;5122572;27;45229;-84
2024/01/18 05:13:36;;;;;;;;;18.25;17.50;;;;;1.36;82.82;98794.63;5121246;27;45465;-82
2024/01/18 05:16:01;;;;;;;;;25.75;21.00;;;;;1.33;82.21;98808.72;5122123;27;45215;-82
2024/01/18 05:18:27;;;;;;;;;25.50;19.50;;;;;1.30;82.35;98802.75;5127355;27;45311;-81
2024/01/18 05:20:52;;;;;;;;;25.00;22.25;;;;;1.24;82.39;98801.28;5125152;27;45238;-85
2024/01/18 05:23:18;;;;;;;;;23.75;21.75;;;;;1.30;82.97;98815.84;5122362;27;45636;-80
2024/01/18 05:25:43;;;;;;;;;24.00;20.75;;;;;1.31;82.71;98822.81;5121264;27;46171;-84
2024/01/18 05:28:09;;;;;;;;;30.25;25.25;;;;;1.23;82.19;98817.91;5121264;27;45334;-83
2024/01/18 05:30:34;;;;;;;;;31.50;29.00;;;;;1.22;82.57;98825.84;5122541;27;45412;-83
2024/01/18 05:32:59;;;;;;;;;35.25;29.50;;;;;1.26;83.03;98832.63;5122970;27;45313;-85
2024/01/18 05:35:25;;;;;;;;;36.75;32.25;;;;;1.29;82.45;98840.31;5122857;27;50066;-83
2024/01/18 05:37:50;;;;;;;;;35.25;31.50;;;;;1.31;82.52;98841.97;5123441;27;45317;-83
2024/01/18 05:40:16;;;;;;;;;49.00;34.25;;;;;1.25;82.23;98841.41;5122920;27;45294;-85
2024/01/18 05:42:42;;;;;;;;;31.50;28.75;;;;;1.35;83.10;98859.25;5122280;27;45582;-82
2024/01/18 05:45:07;;;;;;;;;45.00;34.25;;;;;1.31;81.62;98851.59;5119920;27;45666;-83
2024/01/18 05:47:32;;;;;;;;;37.50;34.25;;;;;1.39;82.78;98873.03;5120329;27;45369;-84
2024/01/18 05:49:58;;;;;;;;;40.50;33.25;;;;;1.39;82.07;98862.56;5120778;27;45469;-86
2024/01/18 05:52:23;;;;;;;;;38.50;35.00;;;;;1.39;82.17;98875.66;5120837;27;48904;-83
2024/01/18 05:54:49;;;;;;;;;45.25;37.00;;;;;1.32;82.47;98863.78;5134309;27;45679;-85
2024/01/18 05:57:14;;;;;;;;;35.50;31.00;;;;;1.50;82.54;98891.72;5141430;27;45412;-82
2024/01/18 05:59:39;;;;;;;;;41.75;34.00;;;;;1.48;82.53;98888.34;5141693;27;45302;-83
2024/01/18 06:02:05;;;;;;;;;34.00;34.00;;;;;1.45;82.02;98898.97;5124393;27;45589;-87
2024/01/18 06:04:30;;;;;;;;;45.25;36.00;;;;;1.52;82.03;98907.38;5123008;27;51494;-86
2024/01/18 06:06:55;;;;;;;;;42.50;36.75;;;;;1.48;81.98;98901.44;5117941;27;45495;-85
2024/01/18 06:09:21;;;;;;;;;33.75;26.50;;;;;1.54;81.81;98926.50;5123337;27;45735;-81
2024/01/18 06:11:47;;;;;;;;;34.50;33.25;;;;;1.53;82.01;98899.44;5120035;27;45737;-85
2024/01/18 06:14:12;;;;;;;;;35.25;31.25;;;;;1.64;82.51;98923.38;5119993;27;45535;-82
2024/01/18 06:16:38;;;;;;;;;39.75;32.75;;;;;1.68;81.07;98924.06;5121135;27;45320;-85
2024/01/18 06:19:04;;;;;;;;;36.50;29.75;;;;;1.65;81.42;98930.31;5121682;27;45303;-85
2024/01/18 06:21:30;;;;;;;;;37.25;32.75;;;;;1.53;80.91;98914.31;5102430;27;45414;-86
2024/01/18 06:23:55;;;;;;;;;36.25;33.00;;;;;1.65;81.97;98961.75;5119593;27;45972;-87
2024/01/18 06:26:20;;;;;;;;;36.00;30.25;;;;;1.59;82.25;98946.34;5121320;27;45259;-86
2024/01/18 06:28:46;;;;;;;;;38.50;33.50;;;;;1.72;81.75;98967.59;5121178;27;45317;-84
2024/01/18 06:31:11;;;;;;;;;40.75;32.75;;;;;1.76;80.78;98974.38;5122325;27;45401;-85
2024/01/18 06:33:36;;;;;;;;;37.00;33.25;;;;;1.77;81.06;98979.53;5120920;27;46167;-83
2024/01/18 06:36:02;;;;;;;;;40.00;35.50;;;;;1.83;81.36;98991.53;5120704;27;45183;-86
2024/01/18 06:38:28;;;;;;;;;40.25;31.50;;;;;1.74;80.54;98981.47;5120897;27;45734;-82
2024/01/18 06:40:58;;;;;;;;;30.75;27.50;;;;;1.83;81.50;99016.91;5126256;27;45532;-82
2024/01/18 06:43:23;;;;;;;;;42.25;31.50;;;;;1.83;80.99;99019.53;5130356;27;45645;-81
2024/01/18 06:45:54;;;;;;;;;43.25;35.50;;;;;1.85;81.58;99030.78;5119735;27;45362;-81
2024/01/18 06:48:20;;;;;;;;;36.25;30.25;;;;;1.81;81.06;99040.53;5125763;27;45314;-82
2024/01/18 06:50:45;;;;;;;;;35.00;32.75;;;;;1.78;80.55;99052.00;5140047;27;45317;-81
2024/01/18 06:53:11;;;;;;;;;40.75;37.75;;;;;1.76;80.37;99063.50;5140319;27;45606;-82
2024/01/18 06:55:36;;;;;;;;;43.25;36.75;;;;;1.75;80.90;99074.91;5123531;27;45231;-84
2024/01/18 06:58:02;;;;;;;;;37.25;33.75;;;;;1.75;81.13;99078.38;5120129;27;45181;-82
2024/01/18 07:00:27;;;;;;;;;49.75;37.50;;;;;1.78;81.40;99083.47;5120352;27;45615;-83
2024/01/18 07:02:53;;;;;;;;;50.00;41.75;;;;;1.79;80.78;99084.31;5119244;27;46641;-80
2024/01/18 07:05:18;;;;;;;;;35.50;28.25;;;;;1.81;81.06;99084.25;5133133;27;45453;-82
2024/01/18 07:07:44;;;;;;;;;40.75;33.00;;;;;1.74;80.83;99081.06;5123207;27;45226;-81
2024/01/18 07:10:09;;;;;;;;;32.25;30.25;;;;;1.80;80.99;99091.25;5132949;27;45469;-82
2024/01/18 07:12:35;;;;;;;;;29.00;21.25;;;;;1.80;80.08;99090.41;5100142;27;45841;-80
2024/01/18 07:15:01;;;;;;;;;42.75;41.00;;;;;1.74;80.17;99102.03;5122223;27;45547;-79
2024/01/18 07:17:27;;;;;;;;;35.50;31.00;;;;;1.71;80.23;99113.50;5134222;27;45312;-83
2024/01/18 07:19:56;;;;;;;;;46.00;39.00;;;;;1.70;80.83;99122.28;5139600;27;45310;-82
2024/01/18 07:22:21;;;;;;;;;51.50;45.00;;;;;1.70;80.74;99138.00;5123868;27;47195;-80
2024/01/18 07:24:46;;;;;;;;;52.00;43.50;;;;;1.63;80.12;99126.06;5119469;27;45221;-82
2024/01/18 07:27:12;;;;;;;;;48.00;39.50;;;;;1.72;79.84;99162.38;5139157;27;51618;-81
2024/01/18 07:29:38;;;;;;;;;51.50;41.75;;;;;1.68;79.78;99166.03;5139330;27;45286;-81
2024/01/18 07:32:04;;;;;;;;;55.50;45.25;;;;;1.64;79.56;99174.94;5139064;27;50034;-81
2024/01/18 07:34:33;;;;;;;;;59.25;47.25;;;;;1.53;80.50;99164.06;5140693;27;45389;-81
2024/01/18 07:36:58;;;;;;;;;52.25;47.00;;;;;1.66;79.60;99174.88;5121484;27;45454;-81
2024/01/18 07:39:24;;;;;;;;;45.75;39.50;;;;;1.60;79.99;99168.13;5120938;27;45532;-81
2024/01/18 07:41:49;;;;;;;;;55.25;43.75;;;;;1.59;79.25;99186.53;5138952;27;46003;-81
2024/01/18 07:44:14;;;;;;;;;57.50;46.75;;;;;1.51;79.37;99181.63;5120272;27;45311;-80
2024/01/18 07:46:40;;;;;;;;;56.25;47.00;;;;;1.50;80.32;99198.25;5138800;27;45239;-81
2024/01/18 07:49:05;;;;;;;;;64.75;49.00;;;;;1.56;79.29;99208.47;5137613;27;45565;-80
2024/01/18 07:51:30;;;;;;;;;61.25;49.50;;;;;1.57;80.03;99220.69;5139183;27;46175;-80
2024/01/18 07:53:56;;;;;;;;;59.75;45.00;;;;;1.48;79.15;99221.91;5138899;27;45347;-82
2024/01/18 07:56:21;;;;;;;;;65.00;45.00;;;;;1.43;79.22;99225.59;5138493;27;52938;-80
2024/01/18 07:58:47;;;;;;;;;43.25;39.75;;;;;1.40;79.72;99238.81;5119927;27;47059;-81
2024/01/18 08:01:15;;;;;;;;;52.67;46.33;;;;;1.36;79.94;99251.19;5138660;27;45943;-81
2024/01/18 08:03:41;;;;;;;;;57.25;43.50;;;;;1.38;80.71;99256.38;5138539;27;45446;-80
2024/01/18 08:06:06;;;;;;;;;51.75;43.50;;;;;1.31;80.14;99253.16;5138327;27;47523;-80
2024/01/18 08:08:32;;;;;;;;;51.25;42.50;;;;;1.30;80.11;99268.91;5138904;27;45308;-81
2024/01/18 08:10:57;;;;;;;;;52.75;43.25;;;;;1.29;80.20;99270.69;5136993;27;46951;-80
2024/01/18 08:13:23;;;;;;;;;49.50;43.25;;;;;1.23;80.56;99272.72;5139323;27;45407;-82
2024/01/18 08:15:48;;;;;;;;;48.25;44.00;;;;;1.30;80.66;99289.88;5138931;27;49352;-80
2024/01/18 08:18:15;;;;;;;;;56.33;42.00;;;;;1.34;79.83;99294.09;5139827;27;45596;-80
2024/01/18 08:20:40;;;;;;;;;53.67;46.33;;;;;1.34;79.62;99304.56;5122005;27;47233;-80
2024/01/18 08:23:06;;;;;;;;;53.00;44.75;;;;;1.05;79.94;99264.66;5121825;27;45432;-80
2024/01/18 08:25:32;;;;;;;;;54.33;48.00;;;;;1.37;79.65;99328.03;5140656;27;45488;-80
2024/01/18 08:27:57;;;;;;;;;60.25;47.75;;;;;1.31;79.28;99323.88;5121140;27;45620;-78
2024/01/18 08:30:23;;;;;;;;;71.00;58.33;;;;;1.37;79.39;99343.75;5138979;27;45223;-80
2024/01/18 08:32:48;;;;;;;;;49.50;40.50;;;;;1.32;79.14;99320.34;5138449;27;45245;-81
2024/01/18 08:35:13;;;;;;;;;53.33;48.00;;;;;1.42;78.56;99337.38;5137960;27;58030;-80
2024/01/18 08:37:39;;;;;;;;;56.00;48.00;;;;;1.40;79.09;99339.22;5119911;27;45587;-79
2024/01/18 08:40:05;;;;;;;;;54.50;43.25;;;;;1.53;78.56;99355.31;5137984;27;46075;-80
2024/01/18 08:42:30;;;;;;;;;60.33;47.33;;;;;1.58;78.29;99366.50;5138436;27;45432;-80
2024/01/18 08:44:56;;;;;;;;;49.25;44.00;;;;;1.55;77.47;99365.75;5138186;27;45295;-79
2024/01/18 08:47:23;;;;;;;;;54.00;43.75;;;;;1.68;78.09;99391.41;5138251;27;45643;-80
2024/01/18 08:49:49;;;;;;;;;61.00;44.00;;;;;1.75;78.03;99398.13;5138255;27;45374;-82
2024/01/18 08:52:14;;;;;;;;;58.25;45.00;;;;;1.80;78.14;99405.81;5136574;27;45481;-82
2024/01/18 08:54:41;;;;;;;;;44.50;42.00;;;;;1.78;77.19;99384.03;5138166;27;45322;-80
2024/01/18 08:57:07;;;;;;;;;61.33;48.33;;;;;1.89;76.64;99404.59;5138236;27;45466;-82
2024/01/18 08:59:33;;;;;;;;;52.50;46.50;;;;;1.92;76.03;99423.66;5119410;27;47250;-80
2024/01/18 09:01:59;;;;;;;;;61.25;50.50;;;;;1.95;75.97;99427.94;5137860;27;45402;-81
2024/01/18 09:04:25;;;;;;;;;58.50;47.25;;;;;1.94;76.10;99431.47;5138105;27;45382;-80
2024/01/18 09:06:51;;;;;;;;;63.25;50.75;;;;;2.08;76.45;99442.28;5119953;27;45396;-80
2024/01/18 09:09:17;;;;;;;;;63.67;49.67;;;;;2.17;75.83;99452.41;5140201;27;46071;-79
2024/01/18 09:11:42;;;;;;;;;66.67;48.00;;;;;2.23;74.92;99454.81;5139078;27;45431;-78
2024/01/18 09:14:07;;;;;;;;;51.75;44.75;;;;;2.27;74.82;99471.25;5119321;27;45446;-78
2024/01/18 09:16:33;;;;;;;;;63.75;46.25;;;;;2.34;74.14;99484.09;5138947;27;45515;-79
2024/01/18 09:19:00;;;;;;;;;53.00;38.50;;;;;2.47;74.15;99497.53;5137044;27;71200;-81
2024/01/18 09:21:26;;;;;;;;;62.00;46.75;;;;;2.49;73.65;99500.13;5137736;27;45333;-79
2024/01/18 09:23:51;;;;;;;;;63.00;50.67;;;;;2.49;73.35;99494.88;5137640;27;45229;-81
2024/01/18 09:26:17;;;;;;;;;65.33;52.67;;;;;2.56;73.78;99512.91;5119990;27;45254;-81
2024/01/18 09:28:43;;;;;;;;;60.00;51.00;;;;;2.65;73.37;99516.94;5137406;27;45401;-81
2024/01/18 09:31:09;;;;;;;;;55.75;49.00;;;;;2.78;73.48;99523.41;5137370;27;45726;-80
2024/01/18 09:33:35;;;;;;;;;66.50;50.75;;;;;2.92;72.54;99523.69;5137959;27;45288;-80
2024/01/18 09:36:01;;;;;;;;;61.75;49.25;;;;;3.00;72.33;99522.53;5119100;27;45577;-82
2024/01/18 09:38:29;;;;;;;;;67.25;50.75;;;;;3.14;72.22;99541.19;5137011;27;46269;-82
2024/01/18 09:41:01;;;;;;;;;63.00;50.50;;;;;3.19;72.62;99534.78;5137190;27;45406;-79
2024/01/18 09:43:27;;;;;;;;;67.75;52.50;;;;;3.13;71.65;99542.09;5137833;27;45320;-80
2024/01/18 09:45:55;;;;;;;;;55.25;45.25;;;;;3.18;71.47;99564.63;5141163;27;45336;-80
2024/01/18 09:48:22;;;;;;;;;58.50;48.50;;;;;3.06;71.39;99564.28;5140669;27;45270;-79
2024/01/18 09:50:49;;;;;;;;;62.25;50.00;;;;;2.94;71.65;99550.72;5140688;27;45287;-81
2024/01/18 09:53:15;;;;;;;;;67.75;48.50;;;;;3.07;71.86;99571.22;5140997;27;45344;-83
2024/01/18 09:55:41;;;;;;;;;52.00;44.75;;;;;3.13;71.73;99581.50;5142103;27;45412;-81
2024/01/18 09:58:13;;;;;;;;;49.00;41.00;;;;;3.07;71.49;99581.75;5141338;27;45404;-81
2024/01/18 10:00:54;;;;;;;;;63.00;49.00;;;;;3.14;71.34;99577.97;5140884;27;45487;-80
2024/01/18 10:03:19;;;;;;;;;62.50;47.25;;;;;3.22;71.25;99602.13;5140788;27;45300;-81
2024/01/18 10:05:46;;;;;;;;;68.00;53.50;;;;;3.36;71.31;99626.03;5140695;27;45358;-82
2024/01/18 10:08:11;;;;;;;;;57.50;48.50;;;;;3.27;70.12;99610.69;5140296;27;46396;-83
2024/01/18 10:10:37;;;;;;;;;57.75;45.25;;;;;3.34;71.20;99617.38;5140873;27;45276;-81
2024/01/18 10:13:05;;;;;;;;;62.00;49.75;;;;;3.52;71.11;99636.78;5140489;27;47441;-81
2024/01/18 10:15:33;;;;;;;;;52.75;44.25;;;;;3.66;69.81;99654.59;5140687;27;45429;-81
2024/01/18 10:18:01;;;;;;;;;56.00;42.75;;;;;3.71;69.18;99642.09;5121314;27;46380;-81
2024/01/18 10:20:26;;;;;;;;;60.25;48.75;;;;;3.92;68.85;99661.38;5140532;27;45353;-82
2024/01/18 10:22:53;;;;;;;;;61.50;49.00;;;;;4.10;68.35;99682.44;5140778;27;45305;-82
2024/01/18 10:25:22;;;;;;;;;63.50;49.25;;;;;4.33;69.53;99688.47;5140928;27;45595;-81
2024/01/18 10:27:52;;;;;;;;;53.00;44.50;;;;;4.57;67.36;99692.63;5140229;27;45576;-80
2024/01/18 10:30:17;;;;;;;;;63.00;44.75;;;;;4.81;67.68;99687.13;5140152;27;45249;-81
2024/01/18 10:32:45;;;;;;;;;61.25;49.00;;;;;5.13;66.93;99697.00;5140038;27;45370;-82
2024/01/18 10:35:24;;;;;;;;;57.75;48.00;;;;;5.35;66.92;99707.38;5140995;27;45494;-83
2024/01/18 10:38:08;;;;;;;;;58.50;44.00;;;;;5.44;65.13;99700.78;5140067;27;46641;-84
2024/01/18 10:40:36;;;;;;;;;56.50;45.25;;;;;5.69;65.96;99711.84;5139950;27;45414;-79
2024/01/18 10:43:03;;;;;;;;;55.25;48.75;;;;;5.78;63.72;99718.44;5140134;27;45221;-81
2024/01/18 10:45:30;;;;;;;;;55.50;43.25;;;;;5.80;63.68;99709.50;5140080;27;45595;-81
2024/01/18 10:47:57;;;;;;;;;51.75;44.00;;;;;5.95;62.83;99710.56;5139521;27;46203;-81
2024/01/18 10:50:24;;;;;;;;;55.50;47.50;;;;;6.05;61.74;99724.13;5139635;27;45515;-81
2024/01/18 10:52:51;;;;;;;;;50.50;43.50;;;;;5.86;61.83;99709.22;5139818;27;45340;-82
2024/01/18 10:55:16;;;;;;;;;39.00;38.75;;;;;5.94;61.36;99729.09;5139553;27;45417;-81
2024/01/18 10:57:42;;;;;;;;;44.25;38.25;;;;;5.84;62.49;99734.81;5139753;27;45360;-81
2024/01/18 11:00:08;;;;;;;;;49.75;39.50;;;;;5.84;62.20;99739.22;5139881;27;45325;-82
2024/01/18 11:02:41;;;;;;;;;55.75;44.75;;;;;5.98;62.72;99749.13;5139504;27;45368;-83
2024/01/18 11:05:17;;;;;;;;;58.50;47.25;;;;;6.22;62.98;99745.22;5139616;27;45513;-82
2024/01/18 11:07:43;;;;;;;;;54.50;43.75;;;;;6.21;60.92;99754.09;5139784;27;45409;-81
2024/01/18 11:10:13;;;;;;;;;55.25;43.50;;;;;6.27;60.90;99772.28;5121959;27;45525;-83
2024/01/18 11:12:41;;;;;;;;;58.75;46.75;;;;;6.33;61.98;99782.50;5140218;27;45533;-83
2024/01/18 11:15:10;;;;;;;;;58.50;45.50;;;;;6.30;60.28;99777.38;5139834;27;45423;-80
2024/01/18 11:17:45;;;;;;;;;59.75;47.25;;;;;6.46;62.05;99783.56;5147866;27;46355;-81
2024/01/18 11:20:12;;;;;;;;;50.75;44.25;;;;;6.83;61.19;99778.16;5151387;27;45345;-80
2024/01/18 11:22:39;;;;;;;;;54.75;44.50;;;;;7.14;60.84;99782.63;5139897;27;45376;-82